sensor_id;sensor_type;location;lat;lon;timestamp;P1;durP1;ratioP1;P2;durP2;ratioP2
25237;SDS011;13185;50.872;5.306;2022-08-19T00:01:38;14.32;;;13.13;;
25237;SDS011;13185;50.872;5.306;2022-08-19T00:04:07;19.42;;;12.43;;
25237;SDS011;13185;50.872;5.306;2022-08-19T00:06:34;13.95;;;12.23;;
25237;SDS011;13185;50.872;5.306;2022-08-19T00:09:02;12.77;;;11.73;;
25237;SDS011;13185;50.872;5.306;2022-08-19T00:11:29;12.73;;;11.63;;
25237;SDS011;13185;50.872;5.306;2022-08-19T00:13:56;14.00;;;12.70;;
25237;SDS011;13185;50.872;5.306;2022-08-19T00:16:22;12.52;;;11.43;;
25237;SDS011;13185;50.872;5.306;2022-08-19T00:18:49;14.90;;;13.43;;
25237;SDS011;13185;50.872;5.306;2022-08-19T00:21:15;13.70;;;12.40;;
25237;SDS011;13185;50.872;5.306;2022-08-19T00:23:41;13.55;;;12.15;;
25237;SDS011;13185;50.872;5.306;2022-08-19T00:26:08;14.00;;;12.70;;
25237;SDS011;13185;50.872;5.306;2022-08-19T00:28:35;14.05;;;12.85;;
25237;SDS011;13185;50.872;5.306;2022-08-19T00:31:01;13.73;;;12.38;;
25237;SDS011;13185;50.872;5.306;2022-08-19T00:33:29;13.98;;;12.40;;
25237;SDS011;13185;50.872;5.306;2022-08-19T00:35:59;15.40;;;13.35;;
25237;SDS011;13185;50.872;5.306;2022-08-19T00:38:25;13.38;;;12.18;;
25237;SDS011;13185;50.872;5.306;2022-08-19T00:40:50;14.30;;;12.68;;
25237;SDS011;13185;50.872;5.306;2022-08-19T00:43:18;14.75;;;13.35;;
25237;SDS011;13185;50.872;5.306;2022-08-19T00:45:47;14.45;;;13.00;;
25237;SDS011;13185;50.872;5.306;2022-08-19T00:48:13;13.77;;;12.35;;
25237;SDS011;13185;50.872;5.306;2022-08-19T00:50:39;13.38;;;12.18;;
25237;SDS011;13185;50.872;5.306;2022-08-19T00:53:08;14.23;;;12.93;;
25237;SDS011;13185;50.872;5.306;2022-08-19T00:55:35;14.07;;;12.82;;
25237;SDS011;13185;50.872;5.306;2022-08-19T00:58:08;14.00;;;12.75;;
25237;SDS011;13185;50.872;5.306;2022-08-19T01:00:37;13.70;;;12.50;;
25237;SDS011;13185;50.872;5.306;2022-08-19T01:03:10;14.25;;;12.85;;
25237;SDS011;13185;50.872;5.306;2022-08-19T01:05:37;13.55;;;12.35;;
25237;SDS011;13185;50.872;5.306;2022-08-19T01:08:06;14.80;;;13.27;;
25237;SDS011;13185;50.872;5.306;2022-08-19T01:10:33;14.27;;;12.98;;
25237;SDS011;13185;50.872;5.306;2022-08-19T01:13:04;15.43;;;13.82;;
25237;SDS011;13185;50.872;5.306;2022-08-19T01:15:31;15.80;;;14.40;;
25237;SDS011;13185;50.872;5.306;2022-08-19T01:18:11;17.38;;;14.18;;
25237;SDS011;13185;50.872;5.306;2022-08-19T01:20:39;14.23;;;13.02;;
25237;SDS011;13185;50.872;5.306;2022-08-19T01:23:06;14.95;;;13.45;;
25237;SDS011;13185;50.872;5.306;2022-08-19T01:25:45;14.80;;;12.43;;
25237;SDS011;13185;50.872;5.306;2022-08-19T01:28:18;14.88;;;13.38;;
25237;SDS011;13185;50.872;5.306;2022-08-19T01:30:46;14.88;;;13.48;;
25237;SDS011;13185;50.872;5.306;2022-08-19T01:33:12;13.68;;;12.48;;
25237;SDS011;13185;50.872;5.306;2022-08-19T01:35:38;13.90;;;12.70;;
25237;SDS011;13185;50.872;5.306;2022-08-19T01:38:06;13.90;;;12.60;;
25237;SDS011;13185;50.872;5.306;2022-08-19T01:40:34;15.13;;;13.73;;
25237;SDS011;13185;50.872;5.306;2022-08-19T01:43:02;14.90;;;13.57;;
25237;SDS011;13185;50.872;5.306;2022-08-19T01:45:29;18.17;;;16.25;;
25237;SDS011;13185;50.872;5.306;2022-08-19T01:47:57;19.38;;;17.48;;
25237;SDS011;13185;50.872;5.306;2022-08-19T01:50:24;19.73;;;17.77;;
25237;SDS011;13185;50.872;5.306;2022-08-19T01:52:50;19.42;;;17.45;;
25237;SDS011;13185;50.872;5.306;2022-08-19T01:55:18;20.88;;;18.77;;
25237;SDS011;13185;50.872;5.306;2022-08-19T01:57:46;21.33;;;19.08;;
25237;SDS011;13185;50.872;5.306;2022-08-19T02:00:16;21.17;;;18.98;;
25237;SDS011;13185;50.872;5.306;2022-08-19T02:02:43;23.60;;;21.13;;
25237;SDS011;13185;50.872;5.306;2022-08-19T02:05:09;22.02;;;19.55;;
25237;SDS011;13185;50.872;5.306;2022-08-19T02:07:35;24.42;;;21.80;;
25237;SDS011;13185;50.872;5.306;2022-08-19T02:10:03;23.05;;;20.65;;
25237;SDS011;13185;50.872;5.306;2022-08-19T02:12:29;23.27;;;20.83;;
25237;SDS011;13185;50.872;5.306;2022-08-19T02:14:54;28.30;;;22.55;;
25237;SDS011;13185;50.872;5.306;2022-08-19T02:17:20;25.55;;;22.35;;
25237;SDS011;13185;50.872;5.306;2022-08-19T02:19:45;25.92;;;22.10;;
25237;SDS011;13185;50.872;5.306;2022-08-19T02:22:11;25.40;;;22.60;;
25237;SDS011;13185;50.872;5.306;2022-08-19T02:24:36;26.83;;;22.98;;
25237;SDS011;13185;50.872;5.306;2022-08-19T02:27:02;26.15;;;22.55;;
25237;SDS011;13185;50.872;5.306;2022-08-19T02:29:27;26.27;;;23.48;;
25237;SDS011;13185;50.872;5.306;2022-08-19T02:31:54;28.80;;;24.27;;
25237;SDS011;13185;50.872;5.306;2022-08-19T02:34:19;29.40;;;24.30;;
25237;SDS011;13185;50.872;5.306;2022-08-19T02:36:45;28.98;;;24.58;;
25237;SDS011;13185;50.872;5.306;2022-08-19T02:39:10;27.60;;;24.02;;
25237;SDS011;13185;50.872;5.306;2022-08-19T02:41:36;28.98;;;24.70;;
25237;SDS011;13185;50.872;5.306;2022-08-19T02:44:02;27.70;;;24.75;;
25237;SDS011;13185;50.872;5.306;2022-08-19T02:46:30;27.02;;;24.13;;
25237;SDS011;13185;50.872;5.306;2022-08-19T02:48:58;30.02;;;25.42;;
25237;SDS011;13185;50.872;5.306;2022-08-19T02:51:28;30.30;;;26.23;;
25237;SDS011;13185;50.872;5.306;2022-08-19T02:53:58;30.70;;;26.05;;
25237;SDS011;13185;50.872;5.306;2022-08-19T02:56:25;34.20;;;26.73;;
25237;SDS011;13185;50.872;5.306;2022-08-19T02:58:52;30.80;;;26.27;;
25237;SDS011;13185;50.872;5.306;2022-08-19T03:01:23;32.05;;;26.20;;
25237;SDS011;13185;50.872;5.306;2022-08-19T03:03:51;32.15;;;26.63;;
25237;SDS011;13185;50.872;5.306;2022-08-19T03:06:16;33.38;;;28.08;;
25237;SDS011;13185;50.872;5.306;2022-08-19T03:08:43;34.10;;;27.35;;
25237;SDS011;13185;50.872;5.306;2022-08-19T03:11:14;31.63;;;27.92;;
25237;SDS011;13185;50.872;5.306;2022-08-19T03:13:42;34.88;;;27.13;;
25237;SDS011;13185;50.872;5.306;2022-08-19T03:16:08;33.47;;;27.38;;
25237;SDS011;13185;50.872;5.306;2022-08-19T03:18:35;32.85;;;27.67;;
25237;SDS011;13185;50.872;5.306;2022-08-19T03:21:00;35.40;;;28.60;;
25237;SDS011;13185;50.872;5.306;2022-08-19T03:23:26;38.22;;;29.52;;
25237;SDS011;13185;50.872;5.306;2022-08-19T03:25:52;37.42;;;29.83;;
25237;SDS011;13185;50.872;5.306;2022-08-19T03:28:19;40.28;;;31.13;;
25237;SDS011;13185;50.872;5.306;2022-08-19T03:31:02;36.92;;;29.10;;
25237;SDS011;13185;50.872;5.306;2022-08-19T03:33:30;38.60;;;30.70;;
25237;SDS011;13185;50.872;5.306;2022-08-19T03:36:03;45.83;;;32.28;;
25237;SDS011;13185;50.872;5.306;2022-08-19T03:38:28;42.70;;;31.00;;
25237;SDS011;13185;50.872;5.306;2022-08-19T03:40:54;41.53;;;30.80;;
25237;SDS011;13185;50.872;5.306;2022-08-19T03:43:19;39.30;;;30.70;;
25237;SDS011;13185;50.872;5.306;2022-08-19T03:45:45;41.55;;;30.13;;
25237;SDS011;13185;50.872;5.306;2022-08-19T03:48:11;40.88;;;30.40;;
25237;SDS011;13185;50.872;5.306;2022-08-19T03:50:39;41.05;;;32.08;;
25237;SDS011;13185;50.872;5.306;2022-08-19T03:53:06;40.88;;;31.35;;
25237;SDS011;13185;50.872;5.306;2022-08-19T03:55:32;42.55;;;32.75;;
25237;SDS011;13185;50.872;5.306;2022-08-19T03:57:57;38.65;;;30.35;;
25237;SDS011;13185;50.872;5.306;2022-08-19T04:00:23;40.63;;;30.70;;
25237;SDS011;13185;50.872;5.306;2022-08-19T04:02:48;42.47;;;30.85;;
25237;SDS011;13185;50.872;5.306;2022-08-19T04:05:14;44.45;;;32.22;;
25237;SDS011;13185;50.872;5.306;2022-08-19T04:07:40;43.78;;;32.33;;
25237;SDS011;13185;50.872;5.306;2022-08-19T04:10:05;44.70;;;31.27;;
25237;SDS011;13185;50.872;5.306;2022-08-19T04:12:31;40.35;;;30.48;;
25237;SDS011;13185;50.872;5.306;2022-08-19T04:14:57;39.30;;;30.27;;
25237;SDS011;13185;50.872;5.306;2022-08-19T04:17:23;41.63;;;30.83;;
25237;SDS011;13185;50.872;5.306;2022-08-19T04:19:49;44.17;;;30.45;;
25237;SDS011;13185;50.872;5.306;2022-08-19T04:22:14;42.15;;;30.15;;
25237;SDS011;13185;50.872;5.306;2022-08-19T04:24:40;40.40;;;31.10;;
25237;SDS011;13185;50.872;5.306;2022-08-19T04:27:05;39.47;;;29.48;;
25237;SDS011;13185;50.872;5.306;2022-08-19T04:29:31;37.55;;;28.88;;
25237;SDS011;13185;50.872;5.306;2022-08-19T04:31:58;34.67;;;29.10;;
25237;SDS011;13185;50.872;5.306;2022-08-19T04:34:24;39.33;;;30.52;;
25237;SDS011;13185;50.872;5.306;2022-08-19T04:36:52;33.38;;;27.15;;
25237;SDS011;13185;50.872;5.306;2022-08-19T04:39:20;38.33;;;28.73;;
25237;SDS011;13185;50.872;5.306;2022-08-19T04:41:49;33.47;;;27.65;;
25237;SDS011;13185;50.872;5.306;2022-08-19T04:44:34;36.20;;;26.48;;
25237;SDS011;13185;50.872;5.306;2022-08-19T04:47:01;32.50;;;27.30;;
25237;SDS011;13185;50.872;5.306;2022-08-19T04:49:30;35.90;;;28.33;;
25237;SDS011;13185;50.872;5.306;2022-08-19T04:51:56;36.35;;;28.10;;
25237;SDS011;13185;50.872;5.306;2022-08-19T04:54:22;36.20;;;28.88;;
25237;SDS011;13185;50.872;5.306;2022-08-19T04:56:50;35.80;;;29.67;;
25237;SDS011;13185;50.872;5.306;2022-08-19T04:59:17;39.08;;;31.00;;
25237;SDS011;13185;50.872;5.306;2022-08-19T05:01:45;43.78;;;31.67;;
25237;SDS011;13185;50.872;5.306;2022-08-19T05:04:15;41.40;;;32.90;;
25237;SDS011;13185;50.872;5.306;2022-08-19T05:06:43;42.97;;;32.03;;
25237;SDS011;13185;50.872;5.306;2022-08-19T05:09:08;44.70;;;33.03;;
25237;SDS011;13185;50.872;5.306;2022-08-19T05:11:35;46.78;;;33.67;;
25237;SDS011;13185;50.872;5.306;2022-08-19T05:14:06;40.40;;;30.73;;
25237;SDS011;13185;50.872;5.306;2022-08-19T05:16:32;42.58;;;31.45;;
25237;SDS011;13185;50.872;5.306;2022-08-19T05:18:57;40.50;;;31.75;;
25237;SDS011;13185;50.872;5.306;2022-08-19T05:21:42;46.03;;;33.60;;
25237;SDS011;13185;50.872;5.306;2022-08-19T05:24:28;42.28;;;32.85;;
25237;SDS011;13185;50.872;5.306;2022-08-19T05:26:54;38.45;;;30.13;;
25237;SDS011;13185;50.872;5.306;2022-08-19T05:29:25;43.22;;;32.03;;
25237;SDS011;13185;50.872;5.306;2022-08-19T05:31:52;39.05;;;31.33;;
25237;SDS011;13185;50.872;5.306;2022-08-19T05:34:19;41.03;;;32.85;;
25237;SDS011;13185;50.872;5.306;2022-08-19T05:36:47;37.95;;;30.55;;
25237;SDS011;13185;50.872;5.306;2022-08-19T05:39:15;41.50;;;31.38;;
25237;SDS011;13185;50.872;5.306;2022-08-19T05:41:44;41.65;;;31.52;;
25237;SDS011;13185;50.872;5.306;2022-08-19T05:44:11;41.97;;;30.85;;
25237;SDS011;13185;50.872;5.306;2022-08-19T05:46:37;40.28;;;32.72;;
25237;SDS011;13185;50.872;5.306;2022-08-19T05:49:04;39.67;;;31.65;;
25237;SDS011;13185;50.872;5.306;2022-08-19T05:51:31;38.88;;;30.85;;
25237;SDS011;13185;50.872;5.306;2022-08-19T05:53:59;35.25;;;29.10;;
25237;SDS011;13185;50.872;5.306;2022-08-19T05:56:24;39.72;;;28.15;;
25237;SDS011;13185;50.872;5.306;2022-08-19T05:58:50;34.72;;;27.83;;
25237;SDS011;13185;50.872;5.306;2022-08-19T06:01:17;33.80;;;26.02;;
25237;SDS011;13185;50.872;5.306;2022-08-19T06:03:43;35.42;;;26.88;;
25237;SDS011;13185;50.872;5.306;2022-08-19T06:06:10;35.45;;;29.00;;
25237;SDS011;13185;50.872;5.306;2022-08-19T06:08:37;34.42;;;26.67;;
25237;SDS011;13185;50.872;5.306;2022-08-19T06:13:38;33.63;;;26.55;;
25237;SDS011;13185;50.872;5.306;2022-08-19T06:16:03;32.20;;;23.85;;
25237;SDS011;13185;50.872;5.306;2022-08-19T06:18:29;33.45;;;25.35;;
25237;SDS011;13185;50.872;5.306;2022-08-19T06:20:55;29.63;;;24.95;;
25237;SDS011;13185;50.872;5.306;2022-08-19T06:23:20;32.33;;;25.58;;
25237;SDS011;13185;50.872;5.306;2022-08-19T06:25:46;32.22;;;25.52;;
25237;SDS011;13185;50.872;5.306;2022-08-19T06:28:11;31.73;;;24.98;;
25237;SDS011;13185;50.872;5.306;2022-08-19T06:30:37;30.65;;;24.23;;
25237;SDS011;13185;50.872;5.306;2022-08-19T06:33:03;33.00;;;25.48;;
25237;SDS011;13185;50.872;5.306;2022-08-19T06:35:28;31.10;;;24.10;;
25237;SDS011;13185;50.872;5.306;2022-08-19T06:37:55;29.02;;;23.80;;
25237;SDS011;13185;50.872;5.306;2022-08-19T06:40:20;31.40;;;24.27;;
25237;SDS011;13185;50.872;5.306;2022-08-19T06:42:46;29.80;;;22.73;;
25237;SDS011;13185;50.872;5.306;2022-08-19T06:45:11;29.50;;;23.17;;
25237;SDS011;13185;50.872;5.306;2022-08-19T06:47:37;31.08;;;23.45;;
25237;SDS011;13185;50.872;5.306;2022-08-19T06:50:02;35.70;;;23.67;;
25237;SDS011;13185;50.872;5.306;2022-08-19T06:52:33;29.02;;;22.58;;
25237;SDS011;13185;50.872;5.306;2022-08-19T06:55:00;28.63;;;21.95;;
25237;SDS011;13185;50.872;5.306;2022-08-19T06:57:26;43.17;;;22.55;;
25237;SDS011;13185;50.872;5.306;2022-08-19T06:59:57;34.47;;;22.85;;
25237;SDS011;13185;50.872;5.306;2022-08-19T07:02:25;29.15;;;21.45;;
25237;SDS011;13185;50.872;5.306;2022-08-19T07:04:51;31.63;;;22.63;;
25237;SDS011;13185;50.872;5.306;2022-08-19T07:07:18;25.00;;;19.75;;
25237;SDS011;13185;50.872;5.306;2022-08-19T07:09:45;30.52;;;20.92;;
25237;SDS011;13185;50.872;5.306;2022-08-19T07:12:14;28.80;;;20.50;;
25237;SDS011;13185;50.872;5.306;2022-08-19T07:14:40;28.20;;;20.27;;
25237;SDS011;13185;50.872;5.306;2022-08-19T07:17:07;28.30;;;20.90;;
25237;SDS011;13185;50.872;5.306;2022-08-19T07:19:35;26.30;;;19.30;;
25237;SDS011;13185;50.872;5.306;2022-08-19T07:22:02;28.95;;;20.73;;
25237;SDS011;13185;50.872;5.306;2022-08-19T07:24:30;28.55;;;20.35;;
25237;SDS011;13185;50.872;5.306;2022-08-19T07:26:56;24.48;;;18.45;;
25237;SDS011;13185;50.872;5.306;2022-08-19T07:29:26;24.13;;;19.17;;
25237;SDS011;13185;50.872;5.306;2022-08-19T07:31:52;22.45;;;16.83;;
25237;SDS011;13185;50.872;5.306;2022-08-19T07:34:22;27.25;;;16.58;;
25237;SDS011;13185;50.872;5.306;2022-08-19T07:36:48;20.08;;;16.10;;
25237;SDS011;13185;50.872;5.306;2022-08-19T07:39:18;22.15;;;17.17;;
25237;SDS011;13185;50.872;5.306;2022-08-19T07:41:46;21.63;;;16.27;;
25237;SDS011;13185;50.872;5.306;2022-08-19T07:44:13;22.75;;;16.60;;
25237;SDS011;13185;50.872;5.306;2022-08-19T07:46:41;22.95;;;17.42;;
25237;SDS011;13185;50.872;5.306;2022-08-19T07:49:09;19.77;;;16.80;;
25237;SDS011;13185;50.872;5.306;2022-08-19T07:51:47;21.50;;;15.75;;
25237;SDS011;13185;50.872;5.306;2022-08-19T07:54:14;20.50;;;15.38;;
25237;SDS011;13185;50.872;5.306;2022-08-19T07:56:41;22.77;;;14.88;;
25237;SDS011;13185;50.872;5.306;2022-08-19T07:59:06;23.05;;;13.85;;
25237;SDS011;13185;50.872;5.306;2022-08-19T08:01:34;26.48;;;13.90;;
25237;SDS011;13185;50.872;5.306;2022-08-19T08:03:59;19.60;;;13.05;;
25237;SDS011;13185;50.872;5.306;2022-08-19T08:06:43;18.48;;;10.77;;
25237;SDS011;13185;50.872;5.306;2022-08-19T08:09:30;15.48;;;10.45;;
25237;SDS011;13185;50.872;5.306;2022-08-19T08:12:02;13.65;;;9.80;;
25237;SDS011;13185;50.872;5.306;2022-08-19T08:14:32;14.83;;;9.57;;
25237;SDS011;13185;50.872;5.306;2022-08-19T08:17:00;12.90;;;9.35;;
25237;SDS011;13185;50.872;5.306;2022-08-19T08:19:27;12.52;;;10.20;;
25237;SDS011;13185;50.872;5.306;2022-08-19T08:21:54;16.83;;;9.93;;
25237;SDS011;13185;50.872;5.306;2022-08-19T08:24:21;14.85;;;9.38;;
25237;SDS011;13185;50.872;5.306;2022-08-19T08:26:47;14.63;;;9.35;;
25237;SDS011;13185;50.872;5.306;2022-08-19T08:29:13;16.88;;;10.90;;
25237;SDS011;13185;50.872;5.306;2022-08-19T08:31:41;13.20;;;9.65;;
25237;SDS011;13185;50.872;5.306;2022-08-19T08:34:09;17.65;;;10.98;;
25237;SDS011;13185;50.872;5.306;2022-08-19T08:36:36;20.45;;;9.68;;
25237;SDS011;13185;50.872;5.306;2022-08-19T08:39:10;13.18;;;10.98;;
25237;SDS011;13185;50.872;5.306;2022-08-19T08:42:01;10.77;;;9.30;;
25237;SDS011;13185;50.872;5.306;2022-08-19T08:44:53;12.98;;;9.93;;
25237;SDS011;13185;50.872;5.306;2022-08-19T08:47:28;14.90;;;9.60;;
25237;SDS011;13185;50.872;5.306;2022-08-19T08:50:04;14.65;;;9.38;;
25237;SDS011;13185;50.872;5.306;2022-08-19T08:52:50;19.05;;;10.57;;
25237;SDS011;13185;50.872;5.306;2022-08-19T08:55:19;19.50;;;11.73;;
25237;SDS011;13185;50.872;5.306;2022-08-19T09:00:18;14.55;;;10.25;;
25237;SDS011;13185;50.872;5.306;2022-08-19T09:02:48;18.92;;;10.70;;
25237;SDS011;13185;50.872;5.306;2022-08-19T09:05:13;18.38;;;11.10;;
25237;SDS011;13185;50.872;5.306;2022-08-19T09:07:49;17.17;;;11.43;;
25237;SDS011;13185;50.872;5.306;2022-08-19T09:15:51;17.90;;;12.75;;
25237;SDS011;13185;50.872;5.306;2022-08-19T09:18:23;28.00;;;13.48;;
25237;SDS011;13185;50.872;5.306;2022-08-19T09:20:49;21.50;;;13.75;;
25237;SDS011;13185;50.872;5.306;2022-08-19T09:23:14;18.17;;;13.13;;
25237;SDS011;13185;50.872;5.306;2022-08-19T09:25:40;17.85;;;11.02;;
25237;SDS011;13185;50.872;5.306;2022-08-19T09:28:06;12.60;;;8.68;;
25237;SDS011;13185;50.872;5.306;2022-08-19T09:30:38;13.68;;;8.40;;
25237;SDS011;13185;50.872;5.306;2022-08-19T09:33:06;12.02;;;7.03;;
25237;SDS011;13185;50.872;5.306;2022-08-19T09:35:32;23.65;;;8.65;;
25237;SDS011;13185;50.872;5.306;2022-08-19T09:37:58;14.38;;;8.15;;
25237;SDS011;13185;50.872;5.306;2022-08-19T09:40:24;14.65;;;7.07;;
25237;SDS011;13185;50.872;5.306;2022-08-19T09:42:51;11.27;;;8.05;;
25237;SDS011;13185;50.872;5.306;2022-08-19T09:45:18;9.60;;;7.05;;
25237;SDS011;13185;50.872;5.306;2022-08-19T09:47:46;12.50;;;7.13;;
25237;SDS011;13185;50.872;5.306;2022-08-19T09:50:12;10.18;;;7.03;;
25237;SDS011;13185;50.872;5.306;2022-08-19T09:52:38;11.40;;;7.43;;
25237;SDS011;13185;50.872;5.306;2022-08-19T09:55:04;13.45;;;7.32;;
25237;SDS011;13185;50.872;5.306;2022-08-19T09:57:31;8.15;;;6.10;;
25237;SDS011;13185;50.872;5.306;2022-08-19T09:59:56;8.77;;;6.97;;
25237;SDS011;13185;50.872;5.306;2022-08-19T10:02:22;8.65;;;5.95;;
25237;SDS011;13185;50.872;5.306;2022-08-19T10:04:47;7.47;;;4.72;;
25237;SDS011;13185;50.872;5.306;2022-08-19T10:07:42;6.43;;;4.10;;
25237;SDS011;13185;50.872;5.306;2022-08-19T10:10:08;6.57;;;3.85;;
25237;SDS011;13185;50.872;5.306;2022-08-19T10:12:34;7.65;;;3.75;;
25237;SDS011;13185;50.872;5.306;2022-08-19T10:15:00;7.40;;;3.45;;
25237;SDS011;13185;50.872;5.306;2022-08-19T10:17:26;5.80;;;2.95;;
25237;SDS011;13185;50.872;5.306;2022-08-19T10:19:52;7.97;;;4.10;;
25237;SDS011;13185;50.872;5.306;2022-08-19T10:22:18;4.47;;;3.45;;
25237;SDS011;13185;50.872;5.306;2022-08-19T10:24:45;10.88;;;4.07;;
25237;SDS011;13185;50.872;5.306;2022-08-19T10:27:11;6.13;;;3.17;;
25237;SDS011;13185;50.872;5.306;2022-08-19T10:29:38;5.93;;;2.97;;
25237;SDS011;13185;50.872;5.306;2022-08-19T10:32:06;3.80;;;2.75;;
25237;SDS011;13185;50.872;5.306;2022-08-19T10:37:51;6.38;;;2.80;;
25237;SDS011;13185;50.872;5.306;2022-08-19T10:40:17;3.38;;;2.17;;
25237;SDS011;13185;50.872;5.306;2022-08-19T10:42:42;3.90;;;2.45;;
25237;SDS011;13185;50.872;5.306;2022-08-19T10:45:09;4.72;;;2.20;;
25237;SDS011;13185;50.872;5.306;2022-08-19T10:47:35;3.75;;;2.40;;
25237;SDS011;13185;50.872;5.306;2022-08-19T10:50:01;5.35;;;3.08;;
25237;SDS011;13185;50.872;5.306;2022-08-19T10:52:47;7.03;;;2.70;;
25237;SDS011;13185;50.872;5.306;2022-08-19T10:55:13;4.30;;;2.53;;
25237;SDS011;13185;50.872;5.306;2022-08-19T10:57:58;6.15;;;3.22;;
25237;SDS011;13185;50.872;5.306;2022-08-19T11:00:23;5.75;;;3.42;;
25237;SDS011;13185;50.872;5.306;2022-08-19T11:02:50;7.47;;;3.28;;
25237;SDS011;13185;50.872;5.306;2022-08-19T11:05:16;6.32;;;2.70;;
25237;SDS011;13185;50.872;5.306;2022-08-19T11:07:42;3.80;;;2.25;;
25237;SDS011;13185;50.872;5.306;2022-08-19T11:10:10;3.95;;;2.40;;
25237;SDS011;13185;50.872;5.306;2022-08-19T11:12:38;4.65;;;2.78;;
25237;SDS011;13185;50.872;5.306;2022-08-19T11:15:08;6.28;;;2.70;;
25237;SDS011;13185;50.872;5.306;2022-08-19T11:17:36;8.88;;;3.10;;
25237;SDS011;13185;50.872;5.306;2022-08-19T11:20:08;5.83;;;3.07;;
25237;SDS011;13185;50.872;5.306;2022-08-19T11:22:34;7.82;;;2.70;;
25237;SDS011;13185;50.872;5.306;2022-08-19T11:25:00;5.15;;;2.90;;
25237;SDS011;13185;50.872;5.306;2022-08-19T11:27:25;3.42;;;2.47;;
25237;SDS011;13185;50.872;5.306;2022-08-19T11:29:51;3.17;;;2.50;;
25237;SDS011;13185;50.872;5.306;2022-08-19T11:32:17;3.67;;;2.55;;
25237;SDS011;13185;50.872;5.306;2022-08-19T11:34:43;3.00;;;2.50;;
25237;SDS011;13185;50.872;5.306;2022-08-19T11:37:11;5.15;;;2.75;;
25237;SDS011;13185;50.872;5.306;2022-08-19T11:39:37;4.13;;;2.42;;
25237;SDS011;13185;50.872;5.306;2022-08-19T11:42:04;4.18;;;2.08;;
25237;SDS011;13185;50.872;5.306;2022-08-19T11:44:51;4.72;;;2.20;;
25237;SDS011;13185;50.872;5.306;2022-08-19T11:47:17;4.95;;;2.42;;
25237;SDS011;13185;50.872;5.306;2022-08-19T11:49:43;5.35;;;2.60;;
25237;SDS011;13185;50.872;5.306;2022-08-19T11:52:08;5.55;;;2.78;;
25237;SDS011;13185;50.872;5.306;2022-08-19T11:54:34;2.97;;;2.58;;
25237;SDS011;13185;50.872;5.306;2022-08-19T11:57:01;4.57;;;2.40;;
25237;SDS011;13185;50.872;5.306;2022-08-19T11:59:28;4.25;;;2.80;;
25237;SDS011;13185;50.872;5.306;2022-08-19T12:01:54;3.83;;;2.42;;
25237;SDS011;13185;50.872;5.306;2022-08-19T12:04:22;5.65;;;2.90;;
25237;SDS011;13185;50.872;5.306;2022-08-19T12:06:48;4.68;;;2.67;;
25237;SDS011;13185;50.872;5.306;2022-08-19T12:09:15;4.72;;;3.13;;
25237;SDS011;13185;50.872;5.306;2022-08-19T12:11:42;5.57;;;2.67;;
25237;SDS011;13185;50.872;5.306;2022-08-19T12:14:11;4.93;;;2.65;;
25237;SDS011;13185;50.872;5.306;2022-08-19T12:16:38;5.95;;;3.50;;
25237;SDS011;13185;50.872;5.306;2022-08-19T12:19:04;5.90;;;3.72;;
25237;SDS011;13185;50.872;5.306;2022-08-19T12:21:30;5.00;;;4.25;;
25237;SDS011;13185;50.872;5.306;2022-08-19T12:23:59;6.43;;;3.60;;
25237;SDS011;13185;50.872;5.306;2022-08-19T12:26:26;6.10;;;4.32;;
25237;SDS011;13185;50.872;5.306;2022-08-19T12:28:53;5.53;;;3.40;;
25237;SDS011;13185;50.872;5.306;2022-08-19T12:31:19;5.22;;;3.08;;
25237;SDS011;13185;50.872;5.306;2022-08-19T12:33:45;5.57;;;3.45;;
25237;SDS011;13185;50.872;5.306;2022-08-19T12:36:12;2.95;;;2.65;;
25237;SDS011;13185;50.872;5.306;2022-08-19T12:38:40;4.80;;;2.55;;
25237;SDS011;13185;50.872;5.306;2022-08-19T12:41:08;2.88;;;2.50;;
25237;SDS011;13185;50.872;5.306;2022-08-19T12:43:37;4.80;;;2.60;;
25237;SDS011;13185;50.872;5.306;2022-08-19T12:46:07;4.13;;;1.92;;
25237;SDS011;13185;50.872;5.306;2022-08-19T12:48:33;2.83;;;2.17;;
25237;SDS011;13185;50.872;5.306;2022-08-19T12:50:59;2.30;;;1.95;;
25237;SDS011;13185;50.872;5.306;2022-08-19T12:53:25;4.88;;;2.20;;
25237;SDS011;13185;50.872;5.306;2022-08-19T12:55:54;6.25;;;2.10;;
25237;SDS011;13185;50.872;5.306;2022-08-19T12:58:21;4.55;;;2.40;;
25237;SDS011;13185;50.872;5.306;2022-08-19T13:00:47;3.58;;;2.78;;
25237;SDS011;13185;50.872;5.306;2022-08-19T13:03:13;5.55;;;2.83;;
25237;SDS011;13185;50.872;5.306;2022-08-19T13:05:39;4.45;;;2.22;;
25237;SDS011;13185;50.872;5.306;2022-08-19T13:08:04;3.35;;;1.98;;
25237;SDS011;13185;50.872;5.306;2022-08-19T13:10:32;6.10;;;2.20;;
25237;SDS011;13185;50.872;5.306;2022-08-19T13:13:03;5.45;;;2.00;;
25237;SDS011;13185;50.872;5.306;2022-08-19T13:15:37;6.40;;;2.08;;
25237;SDS011;13185;50.872;5.306;2022-08-19T13:18:06;3.25;;;1.60;;
25237;SDS011;13185;50.872;5.306;2022-08-19T13:20:34;2.80;;;1.80;;
25237;SDS011;13185;50.872;5.306;2022-08-19T13:23:00;7.88;;;2.05;;
25237;SDS011;13185;50.872;5.306;2022-08-19T13:25:26;3.05;;;1.75;;
25237;SDS011;13185;50.872;5.306;2022-08-19T13:27:51;2.45;;;1.35;;
25237;SDS011;13185;50.872;5.306;2022-08-19T13:30:18;7.00;;;1.67;;
25237;SDS011;13185;50.872;5.306;2022-08-19T13:33:03;4.97;;;1.88;;
25237;SDS011;13185;50.872;5.306;2022-08-19T13:35:36;1.85;;;1.55;;
25237;SDS011;13185;50.872;5.306;2022-08-19T13:38:22;2.97;;;1.60;;
25237;SDS011;13185;50.872;5.306;2022-08-19T13:40:49;2.35;;;1.70;;
25237;SDS011;13185;50.872;5.306;2022-08-19T13:43:16;1.98;;;1.45;;
25237;SDS011;13185;50.872;5.306;2022-08-19T13:45:43;2.95;;;1.80;;
25237;SDS011;13185;50.872;5.306;2022-08-19T13:48:09;3.03;;;1.77;;
25237;SDS011;13185;50.872;5.306;2022-08-19T13:50:39;5.55;;;1.80;;
25237;SDS011;13185;50.872;5.306;2022-08-19T13:53:07;2.55;;;2.00;;
25237;SDS011;13185;50.872;5.306;2022-08-19T13:55:34;2.38;;;1.67;;
25237;SDS011;13185;50.872;5.306;2022-08-19T13:58:01;2.42;;;1.80;;
25237;SDS011;13185;50.872;5.306;2022-08-19T14:00:28;3.47;;;1.98;;
25237;SDS011;13185;50.872;5.306;2022-08-19T14:02:56;3.72;;;2.35;;
25237;SDS011;13185;50.872;5.306;2022-08-19T14:05:23;2.63;;;1.80;;
25237;SDS011;13185;50.872;5.306;2022-08-19T14:07:50;5.00;;;2.30;;
25237;SDS011;13185;50.872;5.306;2022-08-19T14:10:16;4.20;;;2.30;;
25237;SDS011;13185;50.872;5.306;2022-08-19T14:12:42;3.55;;;2.20;;
25237;SDS011;13185;50.872;5.306;2022-08-19T14:15:08;3.38;;;2.10;;
25237;SDS011;13185;50.872;5.306;2022-08-19T14:17:37;4.57;;;1.73;;
25237;SDS011;13185;50.872;5.306;2022-08-19T14:20:04;2.45;;;1.77;;
25237;SDS011;13185;50.872;5.306;2022-08-19T14:22:39;3.80;;;2.30;;
25237;SDS011;13185;50.872;5.306;2022-08-19T14:25:07;3.05;;;2.35;;
25237;SDS011;13185;50.872;5.306;2022-08-19T14:27:34;3.67;;;2.30;;
25237;SDS011;13185;50.872;5.306;2022-08-19T14:30:02;3.63;;;2.20;;
25237;SDS011;13185;50.872;5.306;2022-08-19T14:32:29;3.10;;;2.35;;
25237;SDS011;13185;50.872;5.306;2022-08-19T14:34:54;2.40;;;2.20;;
25237;SDS011;13185;50.872;5.306;2022-08-19T14:37:20;6.28;;;2.33;;
25237;SDS011;13185;50.872;5.306;2022-08-19T14:39:47;2.75;;;1.95;;
25237;SDS011;13185;50.872;5.306;2022-08-19T14:42:12;2.50;;;2.17;;
25237;SDS011;13185;50.872;5.306;2022-08-19T14:44:39;2.88;;;2.35;;
25237;SDS011;13185;50.872;5.306;2022-08-19T14:47:05;7.28;;;2.30;;
25237;SDS011;13185;50.872;5.306;2022-08-19T14:49:32;2.42;;;1.83;;